Terminal Aerodrome Forecast
Issued by NWS Charleston, WV

Current Version | Previous Version | Text Only | Print | Product List | Glossary Off
Versions: 1 2 3 4 5 6 7 8 9 10 11 12 13 14 15 16 17 18 19 20 21 22 23 24

000
FTUS41 KRLX 121000 AAA
TAFHTS
TAF AMD
KHTS 121020Z 1210/1306 02005KT 6SM BR FEW010
     FM121200 04005KT 6SM BR BKN012
     FM121700 04004KT P6SM BKN015
     FM121900 04004KT P6SM BKN025
     FM122100 03005KT P6SM BKN035
     FM130200 VRB03KT P6SM BKN015=

USA.gov is the U.S. government's official web portal to all federal, state and local government web resources and services.